Time;durP1;ratioP1;P1;durP2;ratioP2;P2;SDS_P1;SDS_P2;PMS_P1;PMS_P2;Temp;Humidity;BMP_temperature;BMP_pressure;BME280_temperature;BME280_humidity;BME280_pressure;Samples;Min_cycle;Max_cycle;Signal;HPM_P1;HPM_P2
2022/03/19 00:01:47;;;;;;;1.00;0.63;;;21.70;56.20;;;;;;5084746;28;20035;-38
2022/03/19 00:04:13;;;;;;;2.10;0.60;;;21.70;56.10;;;;;;5083381;28;20493;-38
2022/03/19 00:06:40;;;;;;;0.60;0.60;;;21.70;56.10;;;;;;5083841;28;20080;-38
2022/03/19 00:09:06;;;;;;;0.70;0.50;;;21.70;56.10;;;;;;5082850;28;20417;-38
2022/03/19 00:11:33;;;;;;;1.13;0.60;;;21.70;56.00;;;;;;5083546;28;20072;-38
2022/03/19 00:14:00;;;;;;;1.20;0.70;;;21.70;56.10;;;;;;5083860;28;20089;-38
2022/03/19 00:16:26;;;;;;;0.90;0.60;;;21.70;56.30;;;;;;5084946;28;20030;-39
2022/03/19 00:18:52;;;;;;;0.60;0.60;;;21.70;56.10;;;;;;5081264;28;20511;-38
2022/03/19 00:21:18;;;;;;;0.80;0.45;;;21.70;56.00;;;;;;5093834;28;20039;-38
2022/03/19 00:23:45;;;;;;;0.80;0.60;;;21.70;56.10;;;;;;5086507;28;20088;-38
2022/03/19 00:26:11;;;;;;;0.85;0.50;;;21.70;56.10;;;;;;5066461;28;20100;-38
2022/03/19 00:28:38;;;;;;;0.80;0.50;;;21.70;56.20;;;;;;5080379;28;20153;-38
2022/03/19 00:31:04;;;;;;;1.00;0.60;;;21.70;56.20;;;;;;5096665;28;20028;-38
2022/03/19 00:33:30;;;;;;;1.73;0.70;;;21.70;56.20;;;;;;5088977;28;20025;-38
2022/03/19 00:35:57;;;;;;;1.00;0.60;;;21.70;56.10;;;;;;5070736;28;20029;-39
2022/03/19 00:38:23;;;;;;;1.30;0.70;;;21.70;56.10;;;;;;5070295;28;20092;-38
2022/03/19 00:40:51;;;;;;;0.70;0.50;;;21.70;56.40;;;;;;5083972;28;20318;-38
2022/03/19 00:43:21;;;;;;;1.15;0.60;;;21.70;56.40;;;;;;5082490;28;20040;-38
2022/03/19 00:45:48;;;;;;;0.60;0.55;;;21.70;56.20;;;;;;5083090;28;20032;-38
2022/03/19 00:48:15;;;;;;;0.68;0.50;;;21.70;56.20;;;;;;5064243;28;20033;-38
2022/03/19 00:50:42;;;;;;;0.70;0.60;;;21.70;56.20;;;;;;5078855;28;20556;-38
2022/03/19 00:53:08;;;;;;;0.90;0.50;;;21.70;56.30;;;;;;5085952;28;20027;-38
2022/03/19 00:55:34;;;;;;;0.50;0.40;;;21.70;56.40;;;;;;5083956;28;20056;-38
2022/03/19 00:58:00;;;;;;;0.90;0.60;;;21.70;56.30;;;;;;5076721;28;20071;-38
2022/03/19 01:00:29;;;;;;;0.80;0.50;;;21.70;56.30;;;;;;5080194;28;20048;-38
2022/03/19 01:02:55;;;;;;;0.60;0.40;;;21.60;56.20;;;;;;5083643;28;20056;-38
2022/03/19 01:05:22;;;;;;;1.25;0.50;;;21.60;56.20;;;;;;5079598;28;20055;-38
2022/03/19 01:07:50;;;;;;;0.60;0.40;;;21.60;56.10;;;;;;5065335;28;20041;-38
2022/03/19 01:10:18;;;;;;;0.90;0.50;;;21.70;56.30;;;;;;5082970;28;20111;-38
2022/03/19 01:12:44;;;;;;;0.85;0.45;;;21.70;56.50;;;;;;5079922;28;20108;-38
2022/03/19 01:15:10;;;;;;;0.88;0.75;;;21.60;56.20;;;;;;5073145;28;20024;-39
2022/03/19 01:17:37;;;;;;;1.00;0.73;;;21.70;56.20;;;;;;5077708;28;20476;-39
2022/03/19 01:20:04;;;;;;;0.50;0.45;;;21.70;56.30;;;;;;5078571;28;20033;-38
2022/03/19 01:22:30;;;;;;;0.50;0.50;;;21.70;56.50;;;;;;5079394;28;20389;-38
2022/03/19 01:24:59;;;;;;;1.10;0.60;;;21.60;56.30;;;;;;5057456;28;20033;-38
2022/03/19 01:27:25;;;;;;;0.77;0.50;;;21.60;56.40;;;;;;5078186;28;20080;-38
2022/03/19 01:29:51;;;;;;;0.90;0.70;;;21.60;56.40;;;;;;5079300;28;20033;-38
2022/03/19 01:32:17;;;;;;;0.90;0.52;;;21.60;56.30;;;;;;5079453;28;20024;-38
2022/03/19 01:34:43;;;;;;;1.25;0.70;;;21.60;56.20;;;;;;5075119;28;20024;-38
2022/03/19 01:37:10;;;;;;;1.98;0.60;;;21.60;56.50;;;;;;5073200;28;20029;-38
2022/03/19 01:39:36;;;;;;;0.50;0.50;;;21.70;56.50;;;;;;5076899;28;20044;-38
2022/03/19 01:42:02;;;;;;;0.80;0.60;;;21.70;56.30;;;;;;5077212;28;20039;-38
2022/03/19 01:44:28;;;;;;;0.50;0.47;;;21.60;56.30;;;;;;5079786;28;20026;-38
2022/03/19 01:47:01;;;;;;;0.50;0.45;;;21.60;56.40;;;;;;5077534;28;20036;-38
2022/03/19 01:49:28;;;;;;;1.02;0.50;;;21.60;56.50;;;;;;5071325;28;20041;-38
2022/03/19 01:51:54;;;;;;;0.43;0.43;;;21.60;56.40;;;;;;5073348;28;20691;-39
2022/03/19 01:54:30;;;;;;;1.02;0.60;;;21.60;56.40;;;;;;5078640;28;20032;-38
2022/03/19 01:56:56;;;;;;;0.50;0.45;;;21.60;56.40;;;;;;5077059;28;20043;-38
2022/03/19 01:59:23;;;;;;;0.60;0.40;;;21.60;56.70;;;;;;5074469;28;20385;-39
2022/03/19 02:01:50;;;;;;;1.30;0.60;;;21.60;56.50;;;;;;5061409;28;20114;-38
2022/03/19 02:04:16;;;;;;;1.25;0.60;;;21.60;56.40;;;;;;5064298;28;20039;-38
2022/03/19 02:06:43;;;;;;;0.60;0.50;;;21.70;56.60;;;;;;5084110;28;20029;-38
2022/03/19 02:09:09;;;;;;;0.40;0.40;;;21.60;56.60;;;;;;5076241;28;20048;-40
2022/03/19 02:11:36;;;;;;;1.13;0.63;;;21.60;56.60;;;;;;5078230;28;20027;-38
2022/03/19 02:14:03;;;;;;;1.50;0.60;;;21.60;56.60;;;;;;5073321;28;20033;-39
2022/03/19 02:16:29;;;;;;;0.47;0.43;;;21.60;56.60;;;;;;5079406;28;20032;-37
2022/03/19 02:18:59;;;;;;;0.52;0.50;;;21.60;56.50;;;;;;5072039;28;20095;-38
2022/03/19 02:21:25;;;;;;;0.65;0.45;;;21.60;56.60;;;;;;5078919;28;20038;-38
2022/03/19 02:26:44;;;;;;;1.83;0.55;;;21.60;56.60;;;;;;5063447;28;20059;-38
2022/03/19 02:29:11;;;;;;;0.63;0.57;;;21.60;56.50;;;;;;5070466;28;20066;-38
2022/03/19 02:31:41;;;;;;;1.43;0.50;;;21.60;56.60;;;;;;5071751;28;20028;-38
2022/03/19 02:34:10;;;;;;;1.00;0.50;;;21.60;56.60;;;;;;5070967;28;20024;-38
2022/03/19 02:36:37;;;;;;;0.95;0.60;;;21.60;56.60;;;;;;5070472;28;20025;-39
2022/03/19 02:39:13;;;;;;;0.55;0.43;;;21.60;56.70;;;;;;5069888;28;20036;-38
2022/03/19 02:41:49;;;;;;;1.92;0.70;;;21.50;56.70;;;;;;5070633;28;20561;-38
2022/03/19 02:44:16;;;;;;;0.85;0.57;;;21.50;56.60;;;;;;5071353;28;20040;-38
2022/03/19 02:46:43;;;;;;;;;;;21.50;56.60;;;;;;5070707;28;20040;-38
2022/03/19 02:49:09;;;;;;;1.58;0.73;;;21.50;56.60;;;;;;5071323;28;19920;-38
2022/03/19 02:51:36;;;;;;;1.08;0.50;;;21.50;56.50;;;;;;5074874;28;20017;-38
2022/03/19 02:54:04;;;;;;;0.60;0.60;;;21.50;56.40;;;;;;5073954;28;20374;-38
2022/03/19 02:56:32;;;;;;;0.82;0.50;;;21.50;56.40;;;;;;5076403;28;20024;-38
2022/03/19 02:58:58;;;;;;;0.52;0.50;;;21.50;56.50;;;;;;5082079;28;20052;-38
2022/03/19 03:01:24;;;;;;;0.43;0.40;;;21.60;56.90;;;;;;5081560;28;20050;-38
2022/03/19 03:03:51;;;;;;;0.82;0.70;;;21.50;56.70;;;;;;5082349;28;20025;-38
2022/03/19 03:06:17;;;;;;;0.98;0.60;;;21.60;56.50;;;;;;5086696;28;20039;-38
2022/03/19 03:08:43;;;;;;;0.83;0.70;;;21.50;56.70;;;;;;5078951;28;20555;-37
2022/03/19 03:11:09;;;;;;;0.68;0.43;;;21.50;56.80;;;;;;5081581;28;20029;-38
2022/03/19 03:13:35;;;;;;;1.48;0.60;;;21.50;56.90;;;;;;5082033;28;20043;-38
2022/03/19 03:16:01;;;;;;;0.70;0.52;;;21.50;56.90;;;;;;5082074;28;20028;-37
2022/03/19 03:18:28;;;;;;;0.63;0.50;;;21.50;56.80;;;;;;5081875;28;20032;-38
2022/03/19 03:20:54;;;;;;;0.82;0.50;;;21.40;56.70;;;;;;5063426;28;20064;-38
2022/03/19 03:23:20;;;;;;;0.80;0.60;;;21.40;56.70;;;;;;5081857;28;20044;-38
2022/03/19 03:25:46;;;;;;;1.23;0.50;;;21.40;56.50;;;;;;5057497;28;20789;-37
2022/03/19 03:28:13;;;;;;;0.75;0.50;;;21.40;56.50;;;;;;5062103;28;20138;-37
2022/03/19 03:30:39;;;;;;;0.60;0.40;;;21.40;56.40;;;;;;5064108;28;20032;-38
2022/03/19 03:33:05;;;;;;;1.05;0.63;;;21.40;56.40;;;;;;5062151;28;20041;-38
2022/03/19 03:35:31;;;;;;;0.68;0.50;;;21.40;56.30;;;;;;5073320;28;20033;-38
2022/03/19 03:37:57;;;;;;;1.20;0.70;;;21.40;56.30;;;;;;5073812;28;20034;-38
2022/03/19 03:40:23;;;;;;;0.60;0.50;;;21.40;56.10;;;;;;5065486;28;20029;-37
2022/03/19 03:42:49;;;;;;;2.17;0.57;;;21.40;56.20;;;;;;5071889;28;20052;-37
2022/03/19 03:45:15;;;;;;;0.60;0.57;;;21.30;56.10;;;;;;5081994;28;20032;-38
2022/03/19 03:47:42;;;;;;;0.90;0.60;;;21.30;56.10;;;;;;5081134;28;20086;-38
2022/03/19 03:50:09;;;;;;;1.02;0.60;;;21.30;56.10;;;;;;5081456;28;20116;-38
2022/03/19 03:52:35;;;;;;;;;;;21.30;56.10;;;;;;5082024;28;20124;-38
2022/03/19 03:55:03;;;;;;;1.10;0.60;;;21.30;56.00;;;;;;5066280;28;19909;-38
2022/03/19 03:57:48;;;;;;;0.95;0.47;;;21.30;56.00;;;;;;4999042;28;20101;-38
2022/03/19 04:00:14;;;;;;;2.55;0.50;;;21.20;56.00;;;;;;5002876;28;20034;-38
2022/03/19 04:02:41;;;;;;;1.03;0.60;;;21.20;55.90;;;;;;5002987;28;20038;-38
2022/03/19 04:05:07;;;;;;;2.05;0.65;;;21.20;55.90;;;;;;5003401;28;20073;-38
2022/03/19 04:07:34;;;;;;;3.80;0.80;;;21.20;55.80;;;;;;5001835;28;20038;-38
2022/03/19 04:10:00;;;;;;;1.00;0.73;;;21.20;55.80;;;;;;4984847;28;20039;-37
2022/03/19 04:12:26;;;;;;;1.33;0.70;;;21.20;55.80;;;;;;5002840;28;20034;-37
2022/03/19 04:14:52;;;;;;;0.80;0.50;;;21.20;55.80;;;;;;5003089;28;20046;-38
2022/03/19 04:17:19;;;;;;;1.33;0.60;;;21.20;55.80;;;;;;5002788;28;20030;-38
2022/03/19 04:19:45;;;;;;;2.45;0.80;;;21.20;55.80;;;;;;5003141;28;20035;-38
2022/03/19 04:22:11;;;;;;;1.42;0.90;;;21.10;55.80;;;;;;5002424;28;20062;-38
2022/03/19 04:24:38;;;;;;;1.60;0.50;;;21.10;55.80;;;;;;5002250;28;20038;-38
2022/03/19 04:27:04;;;;;;;0.90;0.60;;;21.10;55.80;;;;;;5002093;28;20106;-38
2022/03/19 04:29:30;;;;;;;0.80;0.55;;;21.10;55.80;;;;;;5002648;28;20404;-38
2022/03/19 04:31:57;;;;;;;1.38;0.52;;;21.00;55.70;;;;;;5002341;28;20692;-37
2022/03/19 04:34:24;;;;;;;1.08;0.60;;;21.00;56.30;;;;;;5015005;28;20068;-37
2022/03/19 04:36:50;;;;;;;0.73;0.60;;;21.00;55.70;;;;;;5048286;28;20059;-37
2022/03/19 04:39:16;;;;;;;1.45;0.77;;;21.00;55.70;;;;;;5050030;28;20101;-37
2022/03/19 04:41:42;;;;;;;1.20;0.60;;;21.00;56.30;;;;;;5059278;28;20107;-38
2022/03/19 04:44:08;;;;;;;0.50;0.50;;;21.00;55.70;;;;;;5064894;28;20029;-37
2022/03/19 04:46:35;;;;;;;0.98;0.80;;;21.00;55.80;;;;;;5065048;28;20017;-37
2022/03/19 04:49:01;;;;;;;1.25;0.77;;;21.00;55.80;;;;;;5069693;28;20036;-37
2022/03/19 04:51:32;;;;;;;2.38;0.70;;;21.00;55.80;;;;;;5070910;28;20056;-37
2022/03/19 04:53:58;;;;;;;1.02;0.60;;;21.00;55.80;;;;;;5065491;28;20049;-38
2022/03/19 04:56:26;;;;;;;1.02;0.65;;;20.90;55.90;;;;;;5067739;28;20515;-37
2022/03/19 04:58:52;;;;;;;1.33;0.70;;;21.00;56.40;;;;;;5064445;28;20043;-37
2022/03/19 05:01:18;;;;;;;0.60;0.50;;;21.00;57.10;;;;;;5046127;28;20060;-37
2022/03/19 05:03:44;;;;;;;1.00;0.88;;;21.00;56.60;;;;;;5064134;28;20837;-37
2022/03/19 05:06:11;;;;;;;0.90;0.60;;;21.00;56.90;;;;;;5066403;28;20116;-37
2022/03/19 05:08:37;;;;;;;1.95;0.63;;;20.90;56.90;;;;;;5071847;28;20036;-37
2022/03/19 05:11:17;;;;;;;1.02;0.60;;;20.90;56.90;;;;;;5072316;28;20742;-37
2022/03/19 05:13:44;;;;;;;1.33;0.80;;;20.90;56.90;;;;;;5084182;28;20079;-38
2022/03/19 05:16:11;;;;;;;1.02;0.57;;;20.90;56.90;;;;;;5077010;28;20144;-37
2022/03/19 05:18:37;;;;;;;0.80;0.68;;;20.90;56.90;;;;;;5072084;28;20044;-37
2022/03/19 05:21:04;;;;;;;0.60;0.60;;;20.90;56.80;;;;;;5061776;28;20117;-38
2022/03/19 05:23:30;;;;;;;2.20;0.47;;;20.90;56.70;;;;;;5054066;28;20477;-37
2022/03/19 05:25:58;;;;;;;0.80;0.43;;;20.90;56.60;;;;;;5064603;28;20053;-37
2022/03/19 05:28:24;;;;;;;0.60;0.50;;;20.90;56.60;;;;;;5058192;28;20041;-37
2022/03/19 05:30:51;;;;;;;2.10;0.60;;;20.90;56.60;;;;;;5065007;28;20016;-38
2022/03/19 05:33:18;;;;;;;1.42;0.65;;;20.80;56.50;;;;;;5045522;28;20266;-38
2022/03/19 05:35:44;;;;;;;0.70;0.60;;;20.90;56.50;;;;;;5063170;28;20121;-37
2022/03/19 05:38:11;;;;;;;0.60;0.60;;;20.80;56.40;;;;;;5059671;28;20029;-42
2022/03/19 05:40:37;;;;;;;0.95;0.60;;;20.80;56.40;;;;;;5054516;28;20033;-37
2022/03/19 05:43:03;;;;;;;0.95;0.85;;;20.80;56.40;;;;;;5063118;28;20081;-37
2022/03/19 05:45:30;;;;;;;0.50;0.50;;;20.80;56.40;;;;;;5047483;28;20079;-38
2022/03/19 05:47:56;;;;;;;1.10;0.75;;;20.80;56.60;;;;;;5060857;28;20464;-37
2022/03/19 05:50:22;;;;;;;0.60;0.50;;;20.80;57.10;;;;;;5063594;28;20033;-37
2022/03/19 05:52:48;;;;;;;0.93;0.60;;;20.80;57.20;;;;;;5062494;28;20092;-37
2022/03/19 05:55:14;;;;;;;0.88;0.60;;;20.80;57.10;;;;;;5063399;28;20116;-38
2022/03/19 05:57:40;;;;;;;0.45;0.45;;;20.80;57.20;;;;;;5048221;28;20032;-37
2022/03/19 06:00:08;;;;;;;2.17;0.70;;;20.80;57.30;;;;;;5043346;28;20025;-36
2022/03/19 06:02:43;;;;;;;1.58;0.80;;;20.80;57.40;;;;;;5061602;28;20516;-37
2022/03/19 06:05:10;;;;;;;1.75;0.65;;;20.80;57.30;;;;;;5064255;28;20519;-38
2022/03/19 06:07:36;;;;;;;1.60;0.82;;;20.80;57.30;;;;;;5064210;28;20032;-37
2022/03/19 06:10:03;;;;;;;1.15;0.80;;;20.80;57.30;;;;;;5063346;28;20056;-37
2022/03/19 06:12:30;;;;;;;;;;;20.80;57.20;;;;;;5059477;28;20104;-38
2022/03/19 06:14:56;;;;;;;1.33;0.43;;;20.70;57.10;;;;;;5068096;28;19905;-37
2022/03/19 06:17:22;;;;;;;0.65;0.65;;;20.70;57.10;;;;;;5061609;28;20029;-37
2022/03/19 06:19:48;;;;;;;0.73;0.40;;;20.80;57.20;;;;;;5062288;28;20088;-37
2022/03/19 06:22:14;;;;;;;0.50;0.50;;;20.80;57.50;;;;;;5054168;28;20133;-37
2022/03/19 06:24:40;;;;;;;0.95;0.52;;;20.80;57.90;;;;;;5073504;28;20016;-37
2022/03/19 06:27:06;;;;;;;2.35;0.60;;;20.80;57.60;;;;;;5066770;28;20072;-37
2022/03/19 06:29:32;;;;;;;2.22;0.50;;;20.80;57.70;;;;;;5062513;28;20056;-38
2022/03/19 06:31:59;;;;;;;1.48;0.60;;;20.80;57.80;;;;;;5062186;28;20505;-37
2022/03/19 06:34:25;;;;;;;0.80;0.40;;;20.80;57.90;;;;;;5063008;28;20029;-38
2022/03/19 06:39:35;;;;;;;0.77;0.70;;;20.70;57.70;;;;;;5045886;28;20075;-38
2022/03/19 06:42:02;;;;;;;0.73;0.57;;;20.70;57.70;;;;;;5059738;28;20017;-38
2022/03/19 06:44:28;;;;;;;0.50;0.45;;;20.70;57.70;;;;;;5062694;28;20032;-38
2022/03/19 06:46:54;;;;;;;0.88;0.75;;;20.70;57.70;;;;;;5057556;28;20009;-37
2022/03/19 06:49:20;;;;;;;0.68;0.55;;;20.80;58.00;;;;;;5050658;28;20080;-38
2022/03/19 06:51:46;;;;;;;0.90;0.50;;;20.80;58.20;;;;;;5032781;28;20462;-37
2022/03/19 06:54:12;;;;;;;1.27;0.60;;;20.80;57.90;;;;;;5051456;28;20036;-38
2022/03/19 06:56:38;;;;;;;1.58;0.80;;;20.80;57.90;;;;;;5049811;28;20036;-38
2022/03/19 06:59:04;;;;;;;1.40;0.70;;;20.80;58.00;;;;;;5053757;28;20470;-38
2022/03/19 07:01:31;;;;;;;0.77;0.57;;;20.80;58.10;;;;;;5045616;28;20105;-38
2022/03/19 07:03:57;;;;;;;1.10;0.63;;;20.80;58.10;;;;;;5047308;28;20025;-38
2022/03/19 07:06:23;;;;;;;0.85;0.60;;;20.80;58.10;;;;;;5052422;28;20025;-38
2022/03/19 07:08:50;;;;;;;0.93;0.65;;;20.80;58.00;;;;;;5047476;28;20040;-37
2022/03/19 07:11:16;;;;;;;1.00;0.68;;;20.80;58.30;;;;;;5051817;28;20043;-37
2022/03/19 07:13:42;;;;;;;0.80;0.55;;;20.80;58.30;;;;;;5051645;28;20687;-38
2022/03/19 07:16:08;;;;;;;1.17;0.65;;;20.80;58.60;;;;;;5052984;28;20033;-38
2022/03/19 07:18:34;;;;;;;1.65;0.73;;;20.80;58.20;;;;;;5061909;28;20051;-38
2022/03/19 07:21:01;;;;;;;0.73;0.60;;;20.80;58.10;;;;;;5061853;28;20033;-38
2022/03/19 07:23:27;;;;;;;0.80;0.70;;;20.80;58.20;;;;;;5055434;28;20119;-38
2022/03/19 07:25:54;;;;;;;0.98;0.57;;;20.80;58.20;;;;;;5065882;28;20047;-38
2022/03/19 07:28:20;;;;;;;0.80;0.60;;;20.80;58.30;;;;;;5062099;28;20069;-38
2022/03/19 07:30:47;;;;;;;0.90;0.60;;;20.80;58.30;;;;;;5062323;28;20052;-38
2022/03/19 07:33:13;;;;;;;0.85;0.68;;;20.80;58.30;;;;;;5067271;28;20051;-38
2022/03/19 07:35:40;;;;;;;0.73;0.70;;;20.80;58.20;;;;;;5092217;28;20036;-37
2022/03/19 07:38:06;;;;;;;0.55;0.50;;;20.80;58.50;;;;;;5089759;28;20060;-38
2022/03/19 07:43:19;;;;;;;0.70;0.68;;;20.90;58.50;;;;;;5082351;28;20039;-37
2022/03/19 07:45:45;;;;;;;1.73;0.90;;;20.90;58.40;;;;;;5085730;28;20034;-38
2022/03/19 07:48:12;;;;;;;0.60;0.60;;;20.90;58.40;;;;;;5067368;28;20037;-38
2022/03/19 07:50:38;;;;;;;0.70;0.63;;;20.90;58.40;;;;;;5085980;28;20626;-38
2022/03/19 07:53:05;;;;;;;1.77;0.80;;;20.90;58.40;;;;;;5085179;28;20104;-38
2022/03/19 07:55:32;;;;;;;0.88;0.70;;;20.90;58.50;;;;;;5084839;28;20481;-38
2022/03/19 07:57:58;;;;;;;1.00;0.82;;;20.90;58.40;;;;;;5084637;28;20029;-38
2022/03/19 08:00:24;;;;;;;1.13;0.73;;;20.90;58.60;;;;;;5084883;28;20032;-38
2022/03/19 08:02:51;;;;;;;0.90;0.80;;;20.90;59.10;;;;;;5085165;28;20044;-38
2022/03/19 08:05:17;;;;;;;0.98;0.80;;;20.90;58.90;;;;;;5074145;28;20038;-38
2022/03/19 08:07:43;;;;;;;1.13;0.70;;;20.90;58.50;;;;;;5065623;28;20033;-38
2022/03/19 08:10:10;;;;;;;0.93;0.65;;;20.90;58.40;;;;;;5082787;28;20032;-38
2022/03/19 08:12:36;;;;;;;0.60;0.60;;;20.90;58.60;;;;;;5064929;28;20021;-38
2022/03/19 08:15:03;;;;;;;1.20;0.70;;;20.90;58.60;;;;;;5083410;28;20101;-37
2022/03/19 08:17:30;;;;;;;0.80;0.80;;;20.90;58.60;;;;;;5060706;28;20060;-38
2022/03/19 08:19:59;;;;;;;0.93;0.82;;;20.90;58.50;;;;;;5085007;28;20051;-37
2022/03/19 08:22:25;;;;;;;0.80;0.70;;;20.90;58.50;;;;;;5084993;28;20036;-37
2022/03/19 08:24:52;;;;;;;1.63;0.90;;;20.90;58.60;;;;;;5084189;28;20148;-37
2022/03/19 08:27:18;;;;;;;2.05;1.20;;;21.00;58.90;;;;;;5085094;28;20917;-38
2022/03/19 08:29:44;;;;;;;1.33;0.90;;;21.00;59.20;;;;;;5083427;28;20206;-38
2022/03/19 08:32:11;;;;;;;1.05;0.85;;;21.00;59.00;;;;;;5085104;28;20481;-37
2022/03/19 08:34:37;;;;;;;1.10;0.85;;;21.00;58.60;;;;;;5085319;28;20032;-37
2022/03/19 08:37:04;;;;;;;1.20;1.00;;;21.00;58.70;;;;;;5105106;28;20035;-38
2022/03/19 08:42:15;;;;;;;1.30;0.80;;;21.00;58.70;;;;;;5083444;28;20040;-38
2022/03/19 08:44:41;;;;;;;1.38;1.10;;;21.00;58.80;;;;;;5083619;28;20021;-38
2022/03/19 08:47:07;;;;;;;0.95;0.80;;;21.00;58.70;;;;;;5079520;28;20028;-38
2022/03/19 08:49:33;;;;;;;1.00;0.90;;;21.00;58.70;;;;;;5073654;28;20037;-38
2022/03/19 08:51:59;;;;;;;2.25;1.05;;;21.00;58.70;;;;;;5075681;28;20040;-37
2022/03/19 08:54:25;;;;;;;1.77;1.10;;;21.00;58.70;;;;;;5072690;28;20032;-37
2022/03/19 08:56:52;;;;;;;1.40;1.00;;;21.00;59.10;;;;;;5072774;28;20192;-37
2022/03/19 08:59:20;;;;;;;1.15;0.90;;;21.00;59.30;;;;;;5074578;28;22686;-38
2022/03/19 09:01:48;;;;;;;1.38;1.25;;;21.00;59.00;;;;;;5074010;28;20088;-38
2022/03/19 09:04:15;;;;;;;1.05;0.95;;;21.00;58.80;;;;;;5073434;28;20033;-37
2022/03/19 09:06:41;;;;;;;2.75;1.08;;;21.00;58.70;;;;;;5070379;28;20020;-37
2022/03/19 09:09:07;;;;;;;1.00;0.90;;;21.00;58.80;;;;;;5072988;28;20041;-37
2022/03/19 09:11:34;;;;;;;1.20;0.90;;;21.00;58.90;;;;;;5074466;28;20032;-37
2022/03/19 09:14:01;;;;;;;1.42;1.02;;;21.00;58.90;;;;;;5071782;28;20059;-37
2022/03/19 09:16:27;;;;;;;2.30;0.88;;;21.00;58.80;;;;;;5076529;28;20040;-38
2022/03/19 09:18:54;;;;;;;1.80;1.20;;;21.00;58.80;;;;;;5084049;28;20028;-38
2022/03/19 09:21:20;;;;;;;1.60;1.15;;;21.00;58.70;;;;;;5083931;28;20546;-37
2022/03/19 09:23:47;;;;;;;1.50;1.10;;;21.00;58.80;;;;;;5083389;28;20063;-37
2022/03/19 09:26:14;;;;;;;1.42;1.02;;;21.00;59.30;;;;;;5082479;28;20123;-37
2022/03/19 09:28:40;;;;;;;1.30;1.07;;;21.10;59.40;;;;;;5083443;28;20067;-37
2022/03/19 09:31:08;;;;;;;1.37;0.93;;;21.10;59.10;;;;;;5083633;28;20032;-37
2022/03/19 09:33:34;;;;;;;1.85;1.10;;;21.10;58.70;;;;;;5083830;28;20031;-37
2022/03/19 09:36:01;;;;;;;1.00;0.90;;;21.10;58.60;;;;;;5074926;28;20033;-37
2022/03/19 09:38:30;;;;;;;1.52;1.13;;;21.10;58.70;;;;;;5070889;28;20086;-37
2022/03/19 09:40:57;;;;;;;1.98;1.13;;;21.10;58.80;;;;;;5075321;28;20055;-37
2022/03/19 09:43:26;;;;;;;0.98;0.95;;;21.10;58.90;;;;;;5075636;28;20055;-37
2022/03/19 09:45:53;;;;;;;2.35;1.10;;;21.10;58.90;;;;;;5054979;28;20178;-37
2022/03/19 09:48:20;;;;;;;1.20;1.02;;;21.10;58.90;;;;;;5072598;28;20110;-36
2022/03/19 09:50:49;;;;;;;1.50;1.10;;;21.00;58.80;;;;;;5072216;28;20085;-38
2022/03/19 09:53:17;;;;;;;1.65;1.23;;;21.10;59.10;;;;;;5072264;28;20040;-38
2022/03/19 09:55:43;;;;;;;1.30;1.15;;;21.10;59.20;;;;;;5055023;28;20025;-38
2022/03/19 09:58:10;;;;;;;1.80;1.17;;;21.10;59.50;;;;;;5070585;28;20043;-37
2022/03/19 10:00:36;;;;;;;1.37;1.07;;;21.10;59.00;;;;;;5071564;28;20135;-38
2022/03/19 10:03:03;;;;;;;1.10;1.00;;;21.10;58.70;;;;;;5072518;28;20066;-37
2022/03/19 10:10:59;;;;;;;1.48;1.10;;;21.10;58.90;;;;;;5082795;28;20119;-37
2022/03/19 10:13:26;;;;;;;1.17;1.00;;;21.10;59.00;;;;;;5079667;28;20551;-37
2022/03/19 10:15:52;;;;;;;0.80;0.80;;;21.10;59.00;;;;;;5063518;28;20492;-37
2022/03/19 10:18:18;;;;;;;1.30;1.10;;;21.10;58.90;;;;;;5062841;28;20029;-38
2022/03/19 10:20:45;;;;;;;1.65;1.23;;;21.10;58.90;;;;;;5062646;28;20047;-37
2022/03/19 10:23:11;;;;;;;3.22;1.40;;;21.10;58.90;;;;;;5062008;28;20399;-37
2022/03/19 10:25:37;;;;;;;1.55;1.20;;;21.20;59.50;;;;;;5082088;28;20076;-37
2022/03/19 10:28:08;;;;;;;2.50;1.40;;;21.20;59.40;;;;;;5047437;28;20048;-37
2022/03/19 10:30:36;;;;;;;1.73;1.20;;;21.20;59.00;;;;;;5082548;28;20024;-38
2022/03/19 10:33:04;;;;;;;1.30;1.20;;;21.10;58.80;;;;;;5080973;28;20063;-38
2022/03/19 10:35:34;;;;;;;1.45;1.17;;;21.20;58.90;;;;;;5064160;28;20035;-38
2022/03/19 10:38:20;;;;;;;1.40;1.20;;;21.20;59.60;;;;;;5077735;28;20063;-37
2022/03/19 10:40:47;;;;;;;1.85;1.35;;;21.20;58.90;;;;;;5077789;28;20028;-37
2022/03/19 10:43:16;;;;;;;1.73;1.42;;;21.20;59.00;;;;;;5081402;28;20062;-38
2022/03/19 10:45:52;;;;;;;1.50;1.40;;;21.10;59.00;;;;;;5082403;28;20058;-38
2022/03/19 10:48:27;;;;;;;1.50;1.40;;;21.10;59.00;;;;;;5078520;28;20035;-38
2022/03/19 10:50:53;;;;;;;1.60;1.48;;;21.10;59.10;;;;;;5071106;28;20067;-38
2022/03/19 10:53:20;;;;;;;1.90;1.40;;;21.20;59.20;;;;;;5044950;28;20037;-37
2022/03/19 10:55:46;;;;;;;1.98;1.27;;;21.20;59.50;;;;;;5081114;28;20134;-37
2022/03/19 10:58:13;;;;;;;2.45;1.30;;;21.20;59.30;;;;;;5081787;28;20036;-37
2022/03/19 11:00:39;;;;;;;1.52;1.33;;;21.20;59.00;;;;;;5082367;28;20024;-38
2022/03/19 11:03:13;;;;;;;2.08;1.40;;;21.20;58.80;;;;;;5078400;28;20028;-38
2022/03/19 11:05:39;;;;;;;1.90;1.30;;;21.20;59.00;;;;;;5088099;28;20032;-37
2022/03/19 11:08:08;;;;;;;1.50;1.30;;;21.20;59.10;;;;;;5074821;28;20025;-38
2022/03/19 11:10:38;;;;;;;1.70;1.45;;;21.20;59.10;;;;;;5067895;28;20021;-38
2022/03/19 11:13:05;;;;;;;1.77;1.30;;;21.20;59.10;;;;;;5067391;28;20044;-38
2022/03/19 11:15:34;;;;;;;1.65;1.45;;;21.10;59.00;;;;;;5048352;28;20028;-37
2022/03/19 11:18:03;;;;;;;1.45;1.30;;;21.20;59.10;;;;;;5075139;28;20507;-38
2022/03/19 11:20:30;;;;;;;1.90;1.55;;;21.10;58.90;;;;;;5066176;28;20065;-38
2022/03/19 11:22:56;;;;;;;1.83;1.50;;;21.20;59.20;;;;;;5073462;28;20104;-37
2022/03/19 11:25:31;;;;;;;1.80;1.45;;;21.20;59.40;;;;;;5069239;28;20029;-38
2022/03/19 11:28:07;;;;;;;1.70;1.60;;;21.20;59.50;;;;;;5064960;28;20029;-38
2022/03/19 11:30:38;;;;;;;2.20;1.50;;;21.20;59.10;;;;;;5047947;28;20025;-38
2022/03/19 11:33:17;;;;;;;3.13;1.60;;;21.20;58.90;;;;;;5073029;28;20032;-37
2022/03/19 11:35:48;;;;;;;2.13;1.40;;;21.20;59.00;;;;;;5078029;28;20029;-38
2022/03/19 11:38:20;;;;;;;1.70;1.48;;;21.20;59.10;;;;;;5057222;28;20051;-38
2022/03/19 11:40:47;;;;;;;1.77;1.50;;;21.20;59.00;;;;;;5075246;28;20029;-37
2022/03/19 11:43:32;;;;;;;1.67;1.50;;;21.20;59.10;;;;;;5074362;28;20032;-38
2022/03/19 11:46:06;;;;;;;1.50;1.40;;;21.20;59.10;;;;;;5075455;28;20040;-38
2022/03/19 11:48:35;;;;;;;1.70;1.40;;;21.20;59.10;;;;;;5073824;28;20120;-38
2022/03/19 11:51:28;;;;;;;2.83;1.70;;;21.20;59.10;;;;;;5075341;28;20024;-38
2022/03/19 11:54:12;;;;;;;2.10;1.88;;;21.20;59.10;;;;;;5075645;28;20021;-38
2022/03/19 11:56:44;;;;;;;1.40;1.30;;;21.20;59.50;;;;;;5074219;28;20059;-39
2022/03/19 11:59:16;;;;;;;1.75;1.50;;;21.30;59.30;;;;;;5074113;28;20024;-38
2022/03/19 12:01:48;;;;;;;1.90;1.80;;;21.30;59.10;;;;;;5072340;28;20059;-37
2022/03/19 12:04:16;;;;;;;1.73;1.48;;;21.30;59.10;;;;;;5077231;28;20032;-38
2022/03/19 12:06:56;;;;;;;1.85;1.63;;;21.20;59.10;;;;;;5085159;28;20028;-37
2022/03/19 12:09:48;;;;;;;2.28;1.70;;;21.20;59.20;;;;;;5083164;28;20395;-37
2022/03/19 12:12:15;;;;;;;2.17;1.60;;;21.20;59.30;;;;;;5047603;28;20600;-37
2022/03/19 12:14:41;;;;;;;1.75;1.52;;;21.20;59.20;;;;;;5083287;28;20036;-37
2022/03/19 12:17:30;;;;;;;2.03;1.80;;;21.20;59.20;;;;;;5046899;28;20028;-37
2022/03/19 12:20:01;;;;;;;1.67;1.38;;;21.20;59.10;;;;;;5064785;28;20064;-37
2022/03/19 12:22:34;;;;;;;1.95;1.55;;;21.30;59.60;;;;;;5052918;28;20051;-37
2022/03/19 12:25:23;;;;;;;1.70;1.60;;;21.30;59.80;;;;;;5084212;28;20116;-37
2022/03/19 12:27:57;;;;;;;2.63;1.50;;;21.30;59.00;;;;;;5065993;28;20067;-37
2022/03/19 12:30:23;;;;;;;1.58;1.35;;;21.30;59.00;;;;;;5084299;28;20096;-37
2022/03/19 12:32:56;;;;;;;1.52;1.42;;;21.30;59.20;;;;;;5082191;28;20055;-37
2022/03/19 12:35:26;;;;;;;3.03;1.88;;;21.30;59.20;;;;;;5087472;28;20040;-37
2022/03/19 12:37:54;;;;;;;2.00;1.52;;;21.20;59.20;;;;;;5083727;28;20036;-37
2022/03/19 12:40:22;;;;;;;2.80;1.40;;;21.20;59.10;;;;;;5073229;28;20021;-37
2022/03/19 12:42:57;;;;;;;1.73;1.45;;;21.20;59.10;;;;;;5086210;28;20029;-37
2022/03/19 12:45:40;;;;;;;1.80;1.50;;;21.20;59.10;;;;;;5083890;28;20025;-37
2022/03/19 12:48:10;;;;;;;2.80;1.48;;;21.20;58.90;;;;;;5078139;28;20029;-37
2022/03/19 12:50:36;;;;;;;1.70;1.30;;;21.20;59.80;;;;;;5081346;28;20037;-37
2022/03/19 12:53:03;;;;;;;2.13;1.55;;;21.30;59.20;;;;;;5084118;28;20140;-37
2022/03/19 12:55:29;;;;;;;1.58;1.10;;;21.30;58.90;;;;;;5067204;28;20052;-37
2022/03/19 12:57:59;;;;;;;1.35;1.10;;;21.30;58.80;;;;;;5083544;28;20088;-37
2022/03/19 13:00:25;;;;;;;1.20;1.10;;;21.30;58.80;;;;;;5074821;28;20082;-37
2022/03/19 13:02:52;;;;;;;1.30;1.10;;;21.30;59.00;;;;;;5063941;28;20051;-37
2022/03/19 13:05:18;;;;;;;2.80;1.27;;;21.20;59.00;;;;;;5075840;28;20033;-38
2022/03/19 13:08:03;;;;;;;1.30;1.10;;;21.20;58.90;;;;;;5067065;28;20021;-37